Time;durP1;ratioP1;P1;durP2;ratioP2;P2;SDS_P1;SDS_P2;PMS_P1;PMS_P2;Temp;Humidity;BMP_temperature;BMP_pressure;BME280_temperature;BME280_humidity;BME280_pressure;Samples;Min_cycle;Max_cycle;Signal;HPM_P1;HPM_P2
2023/01/23 00:00:28;;;;;;;47.38;24.05;;;2.10;99.90;;;;;;2045706;29;20035;-74
2023/01/23 00:01:32;;;;;;;48.05;24.63;;;2.10;99.90;;;;;;2046009;28;20621;-71
2023/01/23 00:02:33;;;;;;;45.03;24.17;;;2.20;99.90;;;;;;2045724;29;20047;-70
2023/01/23 00:03:33;;;;;;;44.00;23.23;;;2.20;99.90;;;;;;2044254;29;20027;-74
2023/01/23 00:04:34;;;;;;;40.97;21.75;;;2.20;99.90;;;;;;2045748;29;20037;-70
2023/01/23 00:05:34;;;;;;;41.35;21.98;;;2.20;99.90;;;;;;2046360;29;20039;-71
2023/01/23 00:06:35;;;;;;;41.25;21.67;;;2.20;99.90;;;;;;2045115;29;20543;-71
2023/01/23 00:07:36;;;;;;;44.88;22.80;;;2.20;99.90;;;;;;2045029;29;20057;-73
2023/01/23 00:08:38;;;;;;;45.90;23.90;;;2.10;99.90;;;;;;2043850;28;20402;-71
2023/01/23 00:09:38;;;;;;;42.45;22.90;;;2.20;99.90;;;;;;2046003;29;20129;-71
2023/01/23 00:10:39;;;;;;;46.05;24.08;;;2.20;99.90;;;;;;2046056;29;20356;-71
2023/01/23 00:11:39;;;;;;;47.20;25.33;;;2.20;99.90;;;;;;2046152;29;20027;-71
2023/01/23 00:12:42;;;;;;;45.90;23.42;;;2.20;99.90;;;;;;2037332;29;20032;-71
2023/01/23 00:13:42;;;;;;;43.75;22.98;;;2.20;99.90;;;;;;2028089;29;20095;-71
2023/01/23 00:14:43;;;;;;;48.20;23.95;;;2.20;99.90;;;;;;2037747;29;20323;-71
2023/01/23 00:15:43;;;;;;;48.10;24.83;;;2.20;99.90;;;;;;2046327;28;20029;-72
2023/01/23 00:16:44;;;;;;;53.17;25.98;;;2.20;99.90;;;;;;2048652;28;20443;-71
2023/01/23 00:17:44;;;;;;;50.17;25.73;;;2.20;99.90;;;;;;2045277;29;20043;-71
2023/01/23 00:18:46;;;;;;;47.17;24.52;;;2.20;99.90;;;;;;2035503;29;20026;-71
2023/01/23 00:19:46;;;;;;;48.80;24.60;;;2.20;99.90;;;;;;2045925;29;20042;-70
2023/01/23 00:20:47;;;;;;;50.47;25.50;;;2.20;99.90;;;;;;2045919;28;20543;-70
2023/01/23 00:21:47;;;;;;;51.03;24.83;;;2.20;99.90;;;;;;2045988;29;20558;-71
2023/01/23 00:22:48;;;;;;;47.38;24.30;;;2.20;99.90;;;;;;2049399;28;20035;-71
2023/01/23 00:23:51;;;;;;;47.65;23.27;;;2.20;99.90;;;;;;2035865;29;20067;-70
2023/01/23 00:24:52;;;;;;;45.38;23.90;;;2.20;99.90;;;;;;2037841;29;20085;-71
2023/01/23 00:25:52;;;;;;;48.17;23.73;;;2.20;99.90;;;;;;2046173;28;20511;-71
2023/01/23 00:26:53;;;;;;;54.45;26.83;;;2.10;99.90;;;;;;2045560;29;20070;-72
2023/01/23 00:27:53;;;;;;;47.95;24.65;;;2.10;99.90;;;;;;2045993;29;20530;-71
2023/01/23 00:28:55;;;;;;;46.85;23.75;;;2.10;99.90;;;;;;2042300;29;20431;-71
2023/01/23 00:29:55;;;;;;;43.92;22.95;;;2.10;99.90;;;;;;2043824;29;20042;-71
2023/01/23 00:31:07;;;;;;;45.15;23.17;;;2.10;99.90;;;;;;2046313;28;20442;-72
2023/01/23 00:32:08;;;;;;;45.90;22.80;;;2.10;99.90;;;;;;2046107;28;20027;-71
2023/01/23 00:33:09;;;;;;;44.38;22.90;;;2.10;99.90;;;;;;2043873;28;20585;-71
2023/01/23 00:34:13;;;;;;;48.60;24.63;;;2.10;99.90;;;;;;2045916;29;20502;-70
2023/01/23 00:35:15;;;;;;;50.67;24.85;;;2.10;99.90;;;;;;2046076;29;20093;-71
2023/01/23 00:36:15;;;;;;;48.83;24.90;;;2.10;99.90;;;;;;2046081;29;20538;-72
2023/01/23 00:37:16;;;;;;;54.15;26.58;;;2.10;99.90;;;;;;2037104;29;20028;-71
2023/01/23 00:38:16;;;;;;;48.85;24.58;;;2.10;99.90;;;;;;2033489;29;20091;-72
2023/01/23 00:39:20;;;;;;;50.75;24.92;;;2.10;99.90;;;;;;2037398;29;20051;-71
2023/01/23 00:40:21;;;;;;;47.60;24.55;;;2.10;99.90;;;;;;2037244;29;20779;-71
2023/01/23 00:41:23;;;;;;;49.75;24.88;;;2.00;99.90;;;;;;2037159;29;20043;-71
2023/01/23 00:42:23;;;;;;;44.50;23.08;;;2.10;99.90;;;;;;2049028;28;20019;-71
2023/01/23 00:43:24;;;;;;;44.20;22.83;;;2.00;99.90;;;;;;2044821;28;20385;-75
2023/01/23 00:44:25;;;;;;;46.55;23.45;;;2.00;99.90;;;;;;2045402;29;20546;-76
2023/01/23 00:45:25;;;;;;;46.85;23.05;;;2.00;99.90;;;;;;2039939;29;20079;-76
2023/01/23 00:46:26;;;;;;;43.63;22.25;;;2.00;99.90;;;;;;2045689;28;20039;-76
2023/01/23 00:47:26;;;;;;;50.33;25.42;;;2.00;99.90;;;;;;2046166;29;20027;-76
2023/01/23 00:48:27;;;;;;;49.00;24.48;;;2.00;99.90;;;;;;2043639;28;20027;-75
2023/01/23 00:49:28;;;;;;;52.20;25.15;;;2.00;99.90;;;;;;2049052;28;20090;-75
2023/01/23 00:50:29;;;;;;;48.45;25.23;;;2.00;99.90;;;;;;2045939;29;20035;-75
2023/01/23 00:51:30;;;;;;;49.58;24.83;;;2.00;99.90;;;;;;2037052;29;20521;-75
2023/01/23 00:52:30;;;;;;;47.00;24.05;;;2.00;99.90;;;;;;2037103;29;20410;-75
2023/01/23 00:53:31;;;;;;;46.10;24.30;;;2.00;99.90;;;;;;2039410;29;20550;-75
2023/01/23 00:54:31;;;;;;;49.35;25.10;;;2.00;99.90;;;;;;2044638;29;20323;-77
2023/01/23 00:55:32;;;;;;;46.85;23.90;;;2.10;99.90;;;;;;2045276;29;20031;-77
2023/01/23 00:56:34;;;;;;;46.50;23.33;;;2.10;99.90;;;;;;2037508;29;20066;-75
2023/01/23 00:57:34;;;;;;;46.95;23.67;;;2.10;99.90;;;;;;2037785;29;20055;-75
2023/01/23 00:58:35;;;;;;;48.30;23.85;;;2.10;99.90;;;;;;2044619;28;20376;-76
2023/01/23 00:59:35;;;;;;;44.92;23.23;;;2.10;99.90;;;;;;2045558;28;20037;-76
2023/01/23 01:00:38;;;;;;;44.70;23.50;;;2.10;99.90;;;;;;2044428;28;20106;-74
2023/01/23 01:01:39;;;;;;;43.20;22.98;;;2.10;99.90;;;;;;2044244;29;20043;-77
2023/01/23 01:02:39;;;;;;;42.67;22.80;;;2.10;99.90;;;;;;2045730;28;20521;-78
2023/01/23 01:03:41;;;;;;;44.88;23.27;;;2.10;99.90;;;;;;2034920;29;20091;-75
2023/01/23 01:04:41;;;;;;;44.22;22.15;;;2.10;99.90;;;;;;2029486;29;20035;-76
2023/01/23 01:05:42;;;;;;;43.25;22.92;;;2.10;99.90;;;;;;2029081;29;20028;-75
2023/01/23 01:06:42;;;;;;;42.58;22.45;;;2.10;99.90;;;;;;2045094;29;20042;-75
2023/01/23 01:07:44;;;;;;;45.40;23.30;;;2.10;99.90;;;;;;2042220;29;20590;-75
2023/01/23 01:08:46;;;;;;;44.70;22.88;;;2.10;99.90;;;;;;2045210;28;20208;-76
2023/01/23 01:09:47;;;;;;;45.13;24.30;;;2.10;99.90;;;;;;2036944;29;20035;-75
2023/01/23 01:10:49;;;;;;;43.97;23.35;;;2.10;99.90;;;;;;2036988;29;20629;-75
2023/01/23 01:11:50;;;;;;;45.45;24.38;;;2.10;99.90;;;;;;2036840;29;20055;-75
2023/01/23 01:12:51;;;;;;;43.92;22.85;;;2.10;99.90;;;;;;2037133;29;20067;-75
2023/01/23 01:13:52;;;;;;;44.20;24.02;;;2.10;99.90;;;;;;2043986;29;20599;-75
2023/01/23 01:14:52;;;;;;;42.13;22.88;;;2.10;99.90;;;;;;2036669;29;20027;-78
2023/01/23 01:15:53;;;;;;;40.33;21.20;;;2.10;99.90;;;;;;2039312;29;20511;-76
2023/01/23 01:16:54;;;;;;;40.05;21.75;;;2.10;99.90;;;;;;2046083;28;20037;-78
2023/01/23 01:17:55;;;;;;;41.17;22.15;;;2.10;99.90;;;;;;2045072;29;20490;-77
2023/01/23 01:18:55;;;;;;;40.15;21.45;;;2.10;99.90;;;;;;2035136;29;20034;-77
2023/01/23 01:19:56;;;;;;;42.95;21.55;;;2.10;99.90;;;;;;2036932;29;20039;-76
2023/01/23 01:20:57;;;;;;;40.63;22.10;;;2.10;99.90;;;;;;2045559;29;20035;-78
2023/01/23 01:21:57;;;;;;;41.65;22.15;;;2.10;99.90;;;;;;2045757;29;20280;-75
2023/01/23 01:22:59;;;;;;;38.58;20.77;;;2.10;99.90;;;;;;2045874;29;20430;-76
2023/01/23 01:23:59;;;;;;;41.35;22.05;;;2.10;99.90;;;;;;2044070;29;20406;-77
2023/01/23 01:25:01;;;;;;;41.75;22.35;;;2.10;99.90;;;;;;2044628;28;20542;-75
2023/01/23 01:26:02;;;;;;;40.83;21.77;;;2.10;99.90;;;;;;2045042;28;20031;-75
2023/01/23 01:27:03;;;;;;;38.20;20.70;;;2.10;99.90;;;;;;2045595;28;20062;-75
2023/01/23 01:28:03;;;;;;;39.72;21.27;;;2.10;99.90;;;;;;2043735;29;20497;-75
2023/01/23 01:29:04;;;;;;;39.47;21.95;;;2.10;99.90;;;;;;2037591;29;20521;-75
2023/01/23 01:30:05;;;;;;;42.40;22.92;;;2.10;99.90;;;;;;2036910;29;20428;-75
2023/01/23 01:31:09;;;;;;;44.70;23.23;;;2.10;99.90;;;;;;2045618;29;20031;-75
2023/01/23 01:32:09;;;;;;;40.60;21.88;;;2.10;99.90;;;;;;2045605;29;20027;-75
2023/01/23 01:33:10;;;;;;;41.88;22.25;;;2.10;99.90;;;;;;2040044;29;20258;-75
2023/01/23 01:34:12;;;;;;;41.40;22.27;;;2.10;99.90;;;;;;2037320;29;20046;-75
2023/01/23 01:35:13;;;;;;;40.75;21.42;;;2.10;99.90;;;;;;2045431;29;20039;-76
2023/01/23 01:36:16;;;;;;;40.35;21.38;;;2.10;99.90;;;;;;2041994;29;20070;-75
2023/01/23 01:37:21;;;;;;;40.10;21.63;;;2.10;99.90;;;;;;2044601;29;20039;-76
2023/01/23 01:38:23;;;;;;;39.10;20.98;;;2.10;99.90;;;;;;2043442;29;20517;-75
2023/01/23 01:39:23;;;;;;;40.53;22.48;;;2.10;99.90;;;;;;2045516;29;20070;-75
2023/01/23 01:40:26;;;;;;;40.20;22.92;;;2.10;99.90;;;;;;2036909;29;20043;-76
2023/01/23 01:41:27;;;;;;;41.78;22.33;;;2.10;99.90;;;;;;2036988;29;20632;-76
2023/01/23 01:42:28;;;;;;;46.03;24.00;;;2.10;99.90;;;;;;2037080;29;20127;-76
2023/01/23 01:43:28;;;;;;;42.08;22.60;;;2.10;99.90;;;;;;2035315;29;20032;-72
2023/01/23 01:44:52;;;;;;;40.55;22.30;;;2.10;99.90;;;;;;2028866;29;20549;-76
2023/01/23 01:46:16;;;;;;;37.92;20.73;;;2.10;99.90;;;;;;2035271;29;20275;-75
2023/01/23 01:47:16;;;;;;;42.17;22.38;;;2.10;99.90;;;;;;2035243;29;20185;-74
2023/01/23 01:48:20;;;;;;;41.58;21.80;;;2.10;99.90;;;;;;2033432;29;20079;-75
2023/01/23 01:49:29;;;;;;;37.85;20.92;;;2.10;99.90;;;;;;2037086;29;20044;-76
2023/01/23 01:50:30;;;;;;;40.92;21.05;;;2.10;99.90;;;;;;2036737;29;20028;-75
2023/01/23 01:51:53;;;;;;;38.97;21.58;;;2.10;99.90;;;;;;2045518;29;20050;-75
2023/01/23 01:52:53;;;;;;;39.15;20.67;;;2.10;99.90;;;;;;2041623;29;20031;-75
2023/01/23 01:54:00;;;;;;;39.15;21.08;;;2.10;99.90;;;;;;2042206;29;20023;-76
2023/01/23 01:55:04;;;;;;;37.80;20.83;;;2.10;99.90;;;;;;2034054;29;20031;-75
2023/01/23 01:56:09;;;;;;;40.80;22.08;;;2.10;99.90;;;;;;2044971;29;20397;-76
2023/01/23 01:57:25;;;;;;;40.47;21.33;;;2.10;99.90;;;;;;2036543;29;20123;-75
2023/01/23 01:58:27;;;;;;;40.75;21.33;;;2.10;99.90;;;;;;2037136;28;20036;-76
2023/01/23 01:59:32;;;;;;;37.63;20.55;;;2.10;99.90;;;;;;2044971;28;20545;-75
2023/01/23 02:00:32;;;;;;;40.80;21.48;;;2.10;99.90;;;;;;2046575;28;20513;-75
2023/01/23 02:01:33;;;;;;;40.70;21.73;;;2.10;99.90;;;;;;2049679;28;20073;-75
2023/01/23 02:02:50;;;;;;;38.88;21.50;;;2.10;99.90;;;;;;2038552;29;20135;-74
2023/01/23 02:03:52;;;;;;;37.25;20.63;;;2.20;99.90;;;;;;2030179;29;20036;-74
2023/01/23 02:04:58;;;;;;;38.53;20.90;;;2.20;99.90;;;;;;2041024;29;20031;-74
2023/01/23 02:05:59;;;;;;;40.75;22.38;;;2.10;99.90;;;;;;2040443;29;20027;-74
2023/01/23 02:07:06;;;;;;;38.95;21.35;;;2.10;99.90;;;;;;2046125;28;20102;-75
2023/01/23 02:08:28;;;;;;;39.50;21.13;;;2.20;99.90;;;;;;2047422;28;20042;-75
2023/01/23 02:09:32;;;;;;;42.65;22.63;;;2.20;99.90;;;;;;2048769;28;20035;-75
2023/01/23 02:10:35;;;;;;;39.85;21.85;;;2.10;99.90;;;;;;2045870;28;20035;-74
2023/01/23 02:11:36;;;;;;;42.00;22.40;;;2.10;99.90;;;;;;2046102;29;20133;-74
2023/01/23 02:12:37;;;;;;;36.38;20.40;;;2.10;99.90;;;;;;2046224;29;20526;-74
2023/01/23 02:13:38;;;;;;;36.60;20.17;;;2.20;99.90;;;;;;2044553;29;20353;-75
2023/01/23 02:14:39;;;;;;;35.88;20.42;;;2.10;99.90;;;;;;2038266;29;20047;-75
2023/01/23 02:15:40;;;;;;;37.40;20.85;;;2.10;99.90;;;;;;2030567;29;20032;-75
2023/01/23 02:16:48;;;;;;;35.50;19.92;;;2.20;99.90;;;;;;2037620;29;20032;-75
2023/01/23 02:17:53;;;;;;;37.38;20.35;;;2.10;99.90;;;;;;2047034;28;20023;-75
2023/01/23 02:18:59;;;;;;;38.13;20.48;;;2.10;99.90;;;;;;2039197;29;20709;-74
2023/01/23 02:20:20;;;;;;;37.15;20.70;;;2.10;99.90;;;;;;2041664;29;20043;-76
2023/01/23 02:21:23;;;;;;;34.83;19.70;;;2.10;99.90;;;;;;2042827;29;20432;-74
2023/01/23 02:22:45;;;;;;;35.88;20.42;;;2.10;99.90;;;;;;2046787;29;20035;-76
2023/01/23 02:24:07;;;;;;;37.70;20.52;;;2.10;99.90;;;;;;2045479;29;20130;-75
2023/01/23 02:25:19;;;;;;;39.55;21.95;;;2.10;99.90;;;;;;2034708;29;20055;-74
2023/01/23 02:26:26;;;;;;;43.47;23.33;;;2.10;99.90;;;;;;2036648;29;20032;-74
2023/01/23 02:27:26;;;;;;;39.05;22.13;;;2.10;99.90;;;;;;2031256;29;20068;-74
2023/01/23 02:28:42;;;;;;;47.22;25.65;;;2.10;99.90;;;;;;2039681;29;20034;-77
2023/01/23 02:29:47;;;;;;;47.33;25.73;;;2.20;99.90;;;;;;2045905;28;20522;-74
2023/01/23 02:30:49;;;;;;;46.42;24.88;;;2.20;99.90;;;;;;2038141;29;20079;-73
2023/01/23 02:31:51;;;;;;;45.05;23.83;;;2.20;99.90;;;;;;2038350;29;20550;-74
2023/01/23 02:32:53;;;;;;;43.38;23.40;;;2.20;99.90;;;;;;2046849;29;20509;-74
2023/01/23 02:33:56;;;;;;;45.20;23.50;;;2.20;99.90;;;;;;2036282;29;20083;-74
2023/01/23 02:35:04;;;;;;;41.58;22.23;;;2.20;99.90;;;;;;2030821;29;20043;-75
2023/01/23 02:36:07;;;;;;;40.35;21.95;;;2.20;99.90;;;;;;2023154;29;20495;-75
2023/01/23 02:37:08;;;;;;;40.67;22.30;;;2.20;99.90;;;;;;2036299;29;20047;-74
2023/01/23 02:38:09;;;;;;;37.95;21.25;;;2.20;99.90;;;;;;2044063;29;20121;-76
2023/01/23 02:39:14;;;;;;;40.53;22.08;;;2.20;99.90;;;;;;2046195;28;20020;-76
2023/01/23 02:40:14;;;;;;;37.35;20.85;;;2.10;99.90;;;;;;2044007;29;20479;-75
2023/01/23 02:41:19;;;;;;;38.08;21.00;;;2.10;99.90;;;;;;2044102;29;20580;-74
2023/01/23 02:42:21;;;;;;;38.42;20.25;;;2.20;99.90;;;;;;2038377;29;20095;-76
2023/01/23 02:43:33;;;;;;;37.78;20.98;;;2.10;99.90;;;;;;2030678;29;20059;-77
2023/01/23 02:44:34;;;;;;;35.30;19.55;;;2.10;99.90;;;;;;2029575;29;20556;-75
2023/01/23 02:45:37;;;;;;;36.45;20.00;;;2.10;99.90;;;;;;2030048;29;20071;-74
2023/01/23 02:46:39;;;;;;;35.63;20.50;;;2.10;99.90;;;;;;2044272;28;20086;-76
2023/01/23 02:47:39;;;;;;;35.50;19.88;;;2.10;99.90;;;;;;2038483;29;20071;-75
2023/01/23 02:48:42;;;;;;;38.13;20.77;;;2.10;99.90;;;;;;2034981;29;20028;-76
2023/01/23 02:49:43;;;;;;;38.17;20.65;;;2.10;99.90;;;;;;2030507;29;20690;-76
2023/01/23 02:50:45;;;;;;;36.47;19.85;;;2.10;99.90;;;;;;2030408;29;20130;-77
2023/01/23 02:51:45;;;;;;;38.33;20.83;;;2.10;99.90;;;;;;2037017;29;20031;-75
2023/01/23 02:52:48;;;;;;;36.17;20.13;;;2.10;99.90;;;;;;2046506;29;20038;-75
2023/01/23 02:53:49;;;;;;;34.67;20.00;;;2.10;99.90;;;;;;2046340;29;20093;-75
2023/01/23 02:54:51;;;;;;;35.78;19.88;;;2.10;99.90;;;;;;2038781;29;20059;-75
2023/01/23 02:55:52;;;;;;;39.85;20.65;;;2.10;99.90;;;;;;2037948;29;20032;-74
2023/01/23 02:56:56;;;;;;;36.63;20.00;;;2.10;99.90;;;;;;2044659;28;20315;-75
2023/01/23 03:00:14;;;;;;;36.60;20.27;;;2.10;99.90;;;;;;2046012;28;20116;-75
2023/01/23 03:00:37;;;;;;;35.80;20.48;;;2.10;99.90;;;;;;2046629;28;20283;-76
2023/01/23 03:01:37;;;;;;;37.55;20.50;;;2.10;99.90;;;;;;2040836;29;20185;-75
2023/01/23 03:02:38;;;;;;;37.80;20.92;;;2.10;99.90;;;;;;2030727;29;20040;-74
2023/01/23 03:03:41;;;;;;;38.90;20.65;;;2.20;99.90;;;;;;2030109;29;20038;-75
2023/01/23 03:04:41;;;;;;;34.42;19.65;;;2.20;99.90;;;;;;2040599;29;20162;-73
2023/01/23 03:05:42;;;;;;;32.28;19.10;;;2.20;99.90;;;;;;2046604;29;20039;-75
2023/01/23 03:06:43;;;;;;;35.60;19.48;;;2.20;99.90;;;;;;2045614;28;20035;-74
2023/01/23 03:07:43;;;;;;;34.03;19.67;;;2.20;99.90;;;;;;2038673;29;20322;-75
2023/01/23 03:08:46;;;;;;;34.55;19.85;;;2.20;99.90;;;;;;2038518;29;20131;-75
2023/01/23 03:09:47;;;;;;;36.05;19.83;;;2.20;99.90;;;;;;2037380;29;20032;-74
2023/01/23 03:10:48;;;;;;;36.28;19.50;;;2.20;99.90;;;;;;2029840;29;20028;-75
2023/01/23 03:11:49;;;;;;;32.72;18.80;;;2.10;99.90;;;;;;2028386;29;20153;-75
2023/01/23 03:12:50;;;;;;;36.50;19.55;;;2.10;99.90;;;;;;2038100;29;20043;-74
2023/01/23 03:13:50;;;;;;;35.08;19.80;;;2.20;99.90;;;;;;2045919;28;20122;-76
2023/01/23 03:14:53;;;;;;;36.28;19.83;;;2.10;99.90;;;;;;2045627;28;20544;-77
2023/01/23 03:15:58;;;;;;;36.97;20.15;;;2.20;99.90;;;;;;2038105;29;20400;-76
2023/01/23 03:16:58;;;;;;;39.47;21.00;;;2.20;99.90;;;;;;2037104;29;20039;-76
2023/01/23 03:18:04;;;;;;;39.40;21.08;;;2.10;99.90;;;;;;2043203;28;20035;-76
2023/01/23 03:19:07;;;;;;;38.95;20.92;;;2.20;99.90;;;;;;2038621;29;20055;-76
2023/01/23 03:20:09;;;;;;;37.70;20.80;;;2.10;99.90;;;;;;2046080;29;20259;-76
2023/01/23 03:21:11;;;;;;;36.50;20.42;;;2.10;99.90;;;;;;2036372;29;20040;-76
2023/01/23 03:22:11;;;;;;;38.47;20.17;;;2.10;99.90;;;;;;2035092;29;20505;-76
2023/01/23 03:23:13;;;;;;;36.47;20.27;;;2.10;99.90;;;;;;2032658;29;20467;-76
2023/01/23 03:24:14;;;;;;;35.70;19.85;;;2.10;99.90;;;;;;2037051;29;20043;-76
2023/01/23 03:25:15;;;;;;;39.65;22.17;;;2.10;99.90;;;;;;2044236;29;20128;-75
2023/01/23 03:26:16;;;;;;;39.17;21.30;;;2.20;99.90;;;;;;2037293;29;20043;-74
2023/01/23 03:27:17;;;;;;;38.20;19.85;;;2.10;99.90;;;;;;2037359;29;20586;-75
2023/01/23 03:31:08;;;;;;;35.05;19.48;;;2.10;99.90;;;;;;2043015;28;20040;-74
2023/01/23 03:32:11;;;;;;;35.95;20.08;;;2.20;99.90;;;;;;2043057;29;20028;-74
2023/01/23 03:33:12;;;;;;;35.63;19.83;;;2.10;99.90;;;;;;2042957;29;20034;-74
2023/01/23 03:34:13;;;;;;;39.30;20.83;;;2.10;99.90;;;;;;2042926;29;20332;-76
2023/01/23 03:35:15;;;;;;;36.33;20.50;;;2.20;99.90;;;;;;2043664;28;20161;-74
2023/01/23 03:36:16;;;;;;;36.80;20.48;;;2.20;99.90;;;;;;2041958;29;20522;-76
2023/01/23 03:37:18;;;;;;;37.70;20.33;;;2.20;99.90;;;;;;2034001;29;20039;-74
2023/01/23 03:38:19;;;;;;;36.88;20.33;;;2.20;99.90;;;;;;2033829;29;20309;-74
2023/01/23 03:42:03;;;;;;;;;;;2.20;99.90;;;;;;2034252;29;20044;-75
2023/01/23 03:43:05;;;;;;;35.83;18.92;;;2.20;99.90;;;;;;2033891;29;19990;-73
2023/01/23 03:44:08;;;;;;;36.00;19.08;;;2.10;99.90;;;;;;2043124;29;20063;-76
2023/01/23 03:45:09;;;;;;;35.40;19.35;;;2.10;99.90;;;;;;2028500;29;20056;-75
2023/01/23 03:46:10;;;;;;;36.03;19.60;;;2.10;99.90;;;;;;2033536;29;20031;-74
2023/01/23 03:47:13;;;;;;;38.08;20.00;;;2.10;99.90;;;;;;2041899;29;20298;-74
2023/01/23 03:48:13;;;;;;;34.22;19.58;;;2.10;99.90;;;;;;2041381;28;20486;-74
2023/01/23 03:49:15;;;;;;;34.90;19.63;;;2.10;99.90;;;;;;2041438;28;20035;-74
2023/01/23 03:50:16;;;;;;;34.80;19.48;;;2.10;99.90;;;;;;2041067;29;20038;-74
2023/01/23 03:51:17;;;;;;;34.83;19.55;;;2.10;99.90;;;;;;2033802;29;20038;-73
2023/01/23 03:52:18;;;;;;;36.08;19.40;;;2.10;99.90;;;;;;2033974;29;20032;-74
2023/01/23 03:53:20;;;;;;;33.25;19.20;;;2.20;99.90;;;;;;2033896;29;20054;-73
2023/01/23 03:54:21;;;;;;;34.78;18.92;;;2.10;99.90;;;;;;2028057;29;20047;-74
2023/01/23 03:55:22;;;;;;;33.10;18.75;;;2.10;99.90;;;;;;2026057;29;20514;-75
2023/01/23 03:56:22;;;;;;;33.78;18.55;;;2.10;99.90;;;;;;2033738;29;20427;-74
2023/01/23 03:57:24;;;;;;;36.58;20.02;;;2.20;99.90;;;;;;2041407;28;20038;-74
2023/01/23 03:58:35;;;;;;;36.40;19.50;;;2.10;99.90;;;;;;2041710;29;20447;-76
2023/01/23 03:59:35;;;;;;;34.15;18.45;;;2.20;99.90;;;;;;2033483;29;20127;-76
2023/01/23 04:00:36;;;;;;;34.88;19.80;;;2.10;99.90;;;;;;2035256;29;20036;-75
2023/01/23 04:01:40;;;;;;;34.00;19.20;;;2.10;99.90;;;;;;2031379;29;20122;-74
2023/01/23 04:02:41;;;;;;;34.88;19.27;;;2.10;99.90;;;;;;2025939;29;20028;-74
2023/01/23 04:03:43;;;;;;;32.10;18.55;;;2.20;99.90;;;;;;2034020;29;20020;-74
2023/01/23 04:04:44;;;;;;;35.85;19.67;;;2.10;99.90;;;;;;2039835;28;20038;-76
2023/01/23 04:05:45;;;;;;;34.28;19.48;;;2.20;99.90;;;;;;2043962;29;20136;-74
2023/01/23 04:06:45;;;;;;;35.35;20.08;;;2.20;99.90;;;;;;2042128;28;20032;-75
2023/01/23 04:07:46;;;;;;;34.00;19.50;;;2.10;99.90;;;;;;2041906;29;20089;-74
2023/01/23 04:08:47;;;;;;;32.65;18.65;;;2.10;99.90;;;;;;2035848;29;20447;-73
2023/01/23 04:09:48;;;;;;;33.58;18.75;;;2.20;99.90;;;;;;2033712;29;20031;-75
2023/01/23 04:10:48;;;;;;;34.55;18.75;;;2.10;99.90;;;;;;2035589;29;20099;-74
2023/01/23 04:11:50;;;;;;;33.35;19.10;;;2.10;99.90;;;;;;2026395;29;20036;-75
2023/01/23 04:12:51;;;;;;;32.97;18.60;;;2.10;99.90;;;;;;2025155;29;20039;-75
2023/01/23 04:13:53;;;;;;;32.17;18.45;;;2.20;99.90;;;;;;2026056;29;20032;-75
2023/01/23 04:14:53;;;;;;;33.35;19.08;;;2.10;99.90;;;;;;2036318;29;20064;-74
2023/01/23 04:15:54;;;;;;;33.13;19.13;;;2.10;99.90;;;;;;2043184;28;20151;-74
2023/01/23 04:16:54;;;;;;;33.17;18.75;;;2.10;99.90;;;;;;2033610;29;20480;-74
2023/01/23 04:17:55;;;;;;;35.72;19.95;;;2.20;99.90;;;;;;2035565;29;20042;-75
2023/01/23 04:18:57;;;;;;;33.47;19.20;;;2.20;99.90;;;;;;2045471;29;20023;-74
2023/01/23 04:20:00;;;;;;;34.80;19.13;;;2.20;99.90;;;;;;2037573;29;20031;-75
2023/01/23 04:21:01;;;;;;;36.50;19.35;;;2.20;99.90;;;;;;2029504;29;20196;-74
2023/01/23 04:22:03;;;;;;;32.65;18.77;;;2.20;99.90;;;;;;2029448;29;20036;-74
2023/01/23 04:23:09;;;;;;;34.80;19.35;;;2.20;99.90;;;;;;2037602;29;20028;-75
2023/01/23 04:24:11;;;;;;;31.63;18.13;;;2.20;99.90;;;;;;2045264;29;20331;-74
2023/01/23 04:25:11;;;;;;;32.63;18.77;;;2.20;99.90;;;;;;2037465;29;20138;-74
2023/01/23 04:26:13;;;;;;;34.28;19.35;;;2.20;99.90;;;;;;2029579;29;20256;-74
2023/01/23 04:27:13;;;;;;;33.42;19.52;;;2.20;99.90;;;;;;2037591;29;20415;-75
2023/01/23 04:28:14;;;;;;;36.03;20.15;;;2.20;99.90;;;;;;2045161;28;20307;-74
2023/01/23 04:29:15;;;;;;;33.92;19.15;;;2.20;99.90;;;;;;2029342;29;20043;-74
2023/01/23 04:30:16;;;;;;;34.67;19.55;;;2.20;99.90;;;;;;2029560;29;20059;-75
2023/01/23 04:31:17;;;;;;;33.78;18.85;;;2.20;99.90;;;;;;2029454;29;20528;-74
2023/01/23 04:32:18;;;;;;;34.65;19.33;;;2.20;99.90;;;;;;2037363;29;20043;-74
2023/01/23 04:33:20;;;;;;;32.92;18.85;;;2.20;99.90;;;;;;2045517;29;20058;-74
2023/01/23 04:34:21;;;;;;;32.75;18.65;;;2.20;99.90;;;;;;2037292;29;20047;-74
2023/01/23 04:35:24;;;;;;;32.10;18.08;;;2.20;99.90;;;;;;2029646;29;20036;-75
2023/01/23 04:36:25;;;;;;;33.08;18.95;;;2.20;99.90;;;;;;2029468;29;20064;-74
2023/01/23 04:37:26;;;;;;;32.40;18.15;;;2.20;99.90;;;;;;2037383;29;20043;-74
2023/01/23 04:38:28;;;;;;;31.02;17.92;;;2.20;99.90;;;;;;2045311;29;20570;-75
2023/01/23 04:39:31;;;;;;;32.08;18.50;;;2.20;99.90;;;;;;2045170;28;20506;-74
2023/01/23 04:40:32;;;;;;;33.45;19.20;;;2.20;99.90;;;;;;2045162;29;20039;-74
2023/01/23 04:41:34;;;;;;;33.08;18.73;;;2.20;99.90;;;;;;2037237;29;20080;-74
2023/01/23 04:42:39;;;;;;;32.25;18.77;;;2.20;99.90;;;;;;2029934;29;20040;-74
2023/01/23 04:43:45;;;;;;;32.13;18.50;;;2.20;99.90;;;;;;2038168;29;20038;-75
2023/01/23 04:44:46;;;;;;;32.83;17.83;;;2.20;99.90;;;;;;2029454;29;20047;-74
2023/01/23 04:46:05;;;;;;;32.65;18.50;;;2.20;99.90;;;;;;2034493;29;20040;-74
2023/01/23 04:47:23;;;;;;;30.23;17.73;;;2.20;99.90;;;;;;2037157;29;20066;-74
2023/01/23 04:48:24;;;;;;;32.05;18.02;;;2.20;99.90;;;;;;2037204;29;20030;-74
2023/01/23 04:49:25;;;;;;;32.63;18.48;;;2.20;99.90;;;;;;2037248;29;20534;-74
2023/01/23 04:50:26;;;;;;;35.28;20.10;;;2.20;99.90;;;;;;2029507;29;20115;-74
2023/01/23 04:51:26;;;;;;;35.60;20.50;;;2.20;99.90;;;;;;2037251;29;20450;-73
2023/01/23 04:52:27;;;;;;;35.75;20.02;;;2.30;99.90;;;;;;2037214;29;20050;-74
2023/01/23 04:53:31;;;;;;;33.70;19.42;;;2.20;99.90;;;;;;2045166;29;20031;-74
2023/01/23 04:54:35;;;;;;;35.58;20.02;;;2.20;99.90;;;;;;2037185;29;20632;-74
2023/01/23 04:55:36;;;;;;;36.25;20.10;;;2.30;99.90;;;;;;2029321;29;20114;-76
2023/01/23 04:56:39;;;;;;;32.58;18.77;;;2.20;99.90;;;;;;2037447;29;20028;-74
2023/01/23 04:57:43;;;;;;;34.60;19.48;;;2.20;99.90;;;;;;2045191;29;20150;-74
2023/01/23 04:58:52;;;;;;;36.53;20.38;;;2.20;99.90;;;;;;2045370;29;20114;-74
2023/01/23 04:59:54;;;;;;;34.97;20.38;;;2.20;99.90;;;;;;2043949;28;20042;-74
2023/01/23 05:01:03;;;;;;;34.90;19.95;;;2.20;99.90;;;;;;2044753;28;20152;-74
2023/01/23 05:02:06;;;;;;;36.17;19.60;;;2.20;99.90;;;;;;2043640;28;20095;-74
2023/01/23 05:03:15;;;;;;;34.85;20.13;;;2.20;99.90;;;;;;2037259;29;20471;-74
2023/01/23 05:04:19;;;;;;;34.08;19.90;;;2.20;99.90;;;;;;2037704;29;20032;-74
2023/01/23 05:05:22;;;;;;;37.05;21.58;;;2.20;99.90;;;;;;2028382;29;20296;-74
2023/01/23 05:06:25;;;;;;;36.00;20.40;;;2.20;99.90;;;;;;2033394;29;20081;-75
2023/01/23 05:07:29;;;;;;;37.25;20.17;;;2.30;99.90;;;;;;2032718;29;20031;-76
2023/01/23 05:08:39;;;;;;;34.22;19.70;;;2.30;99.90;;;;;;2035944;29;20167;-76
2023/01/23 05:09:47;;;;;;;37.33;20.60;;;2.30;99.90;;;;;;2031772;29;20518;-76
2023/01/23 05:10:51;;;;;;;37.33;20.50;;;2.20;99.90;;;;;;2023056;29;20570;-76
2023/01/23 05:11:53;;;;;;;37.33;20.08;;;2.20;99.90;;;;;;2033329;29;20028;-75
2023/01/23 05:12:56;;;;;;;38.45;21.67;;;2.20;99.90;;;;;;2032997;29;20084;-75
2023/01/23 05:13:58;;;;;;;39.30;21.50;;;2.20;99.90;;;;;;2030354;29;20425;-75
2023/01/23 05:15:00;;;;;;;39.47;22.08;;;2.20;99.90;;;;;;2035465;29;20087;-75
2023/01/23 05:16:01;;;;;;;39.22;21.75;;;2.20;99.90;;;;;;2025396;29;20561;-72
2023/01/23 05:17:06;;;;;;;39.05;21.88;;;2.30;99.90;;;;;;2026313;29;20020;-72
2023/01/23 05:18:14;;;;;;;42.58;22.98;;;2.30;99.90;;;;;;2031266;29;20108;-75
2023/01/23 05:19:14;;;;;;;42.72;22.65;;;2.30;99.90;;;;;;2040761;29;20327;-75
2023/01/23 05:20:16;;;;;;;41.13;22.33;;;2.30;99.90;;;;;;2041581;28;20484;-75
2023/01/23 05:21:17;;;;;;;42.20;22.77;;;2.30;99.90;;;;;;2043113;29;20031;-75
2023/01/23 05:22:18;;;;;;;40.45;23.08;;;2.30;99.90;;;;;;2033767;29;20114;-75
2023/01/23 05:23:19;;;;;;;42.92;22.95;;;2.30;99.90;;;;;;2025660;29;20040;-75
2023/01/23 05:24:23;;;;;;;42.95;22.67;;;2.30;99.90;;;;;;2025771;29;20167;-75
2023/01/23 05:25:26;;;;;;;37.75;21.42;;;2.30;99.90;;;;;;2035419;29;20122;-76
2023/01/23 05:26:29;;;;;;;43.33;22.95;;;2.30;99.90;;;;;;2038671;29;20039;-75
2023/01/23 05:27:30;;;;;;;39.42;21.02;;;2.20;99.90;;;;;;2028995;29;20122;-75
2023/01/23 05:28:32;;;;;;;38.85;21.67;;;2.20;99.90;;;;;;2026341;29;20122;-75
2023/01/23 05:29:32;;;;;;;40.83;22.80;;;2.20;99.90;;;;;;2032542;29;20145;-76